Time;durP1;ratioP1;P1;durP2;ratioP2;P2;SDS_P1;SDS_P2;PMS_P1;PMS_P2;Temp;Humidity;BMP_temperature;BMP_pressure;BME280_temperature;BME280_humidity;BME280_pressure;Samples;Min_cycle;Max_cycle;Signal;HPM_P1;HPM_P2
2021/08/10 00:00:28;;;;;;;4.03;2.40;;;;;;;11.84;100.00;94136.13;5072671;28;20317;-81
2021/08/10 00:02:57;;;;;;;5.30;2.30;;;;;;;12.01;100.00;94145.22;5072362;28;20662;-81
2021/08/10 00:05:24;;;;;;;3.20;2.07;;;;;;;11.72;100.00;94141.09;5073259;28;20226;-81
2021/08/10 00:07:50;;;;;;;6.50;2.20;;;;;;;11.53;100.00;94139.25;5075953;28;20198;-80
2021/08/10 00:10:17;;;;;;;3.17;2.00;;;;;;;11.46;100.00;94137.41;5076076;28;20285;-80
2021/08/10 00:12:43;;;;;;;7.25;2.47;;;;;;;11.47;100.00;94133.81;5075449;28;20441;-82
2021/08/10 00:15:11;;;;;;;3.80;2.30;;;;;;;11.53;100.00;94129.59;5076206;28;20199;-82
2021/08/10 00:17:38;;;;;;;6.33;2.50;;;;;;;11.47;100.00;94130.38;5076890;28;20201;-81
2021/08/10 00:20:07;;;;;;;6.33;2.20;;;;;;;11.31;100.00;94131.56;5076431;28;20234;-82
2021/08/10 00:22:33;;;;;;;6.40;2.60;;;;;;;11.35;100.00;94124.13;5076176;28;20222;-82
2021/08/10 00:25:00;;;;;;;5.90;2.47;;;;;;;11.52;100.00;94124.56;5076092;28;20206;-82
2021/08/10 00:27:27;;;;;;;6.93;3.00;;;;;;;11.47;100.00;94123.34;5075954;28;20210;-81
2021/08/10 00:29:53;;;;;;;4.30;2.43;;;;;;;11.47;100.00;94127.75;5076055;28;20198;-82
2021/08/10 00:32:20;;;;;;;4.27;2.50;;;;;;;11.54;100.00;94123.38;5075960;28;20297;-82
2021/08/10 00:34:47;;;;;;;6.07;2.40;;;;;;;11.54;100.00;94125.16;5075485;28;20203;-81
2021/08/10 00:37:15;;;;;;;6.40;2.57;;;;;;;11.47;100.00;94119.91;5075570;28;20202;-82
2021/08/10 00:39:41;;;;;;;5.77;2.63;;;;;;;11.39;100.00;94125.31;5075754;28;20220;-80
2021/08/10 00:42:11;;;;;;;5.07;2.60;;;;;;;11.45;100.00;94125.34;5075193;28;20230;-82
2021/08/10 00:44:37;;;;;;;5.27;2.33;;;;;;;11.44;100.00;94117.69;5076026;28;20231;-81
2021/08/10 00:47:04;;;;;;;5.32;2.85;;;;;;;11.38;100.00;94118.50;5075317;28;20901;-81
2021/08/10 00:49:31;;;;;;;4.87;2.67;;;;;;;11.23;100.00;94122.06;5078187;28;20210;-81
2021/08/10 00:51:58;;;;;;;4.47;2.40;;;;;;;11.20;100.00;94124.25;5078712;28;20231;-81
2021/08/10 00:54:26;;;;;;;5.43;2.53;;;;;;;11.27;100.00;94112.84;5077108;28;20281;-81
2021/08/10 00:56:53;;;;;;;6.60;3.00;;;;;;;11.27;100.00;94123.28;5078495;28;20205;-80
2021/08/10 00:59:19;;;;;;;6.23;2.50;;;;;;;11.27;100.00;94119.84;5077505;28;20237;-81
2021/08/10 01:01:46;;;;;;;8.13;2.87;;;;;;;11.24;100.00;94120.25;5076397;28;20230;-81
2021/08/10 01:04:12;;;;;;;4.00;2.97;;;;;;;11.18;100.00;94119.22;5077969;28;20202;-81
2021/08/10 01:06:49;;;;;;;6.23;2.80;;;;;;;11.18;100.00;94118.44;5076944;28;20657;-81
2021/08/10 01:09:21;;;;;;;6.60;2.60;;;;;;;11.29;100.00;94110.84;5077549;28;20201;-81
2021/08/10 01:12:00;;;;;;;5.87;2.90;;;;;;;11.29;100.00;94115.22;5076741;28;20256;-81
2021/08/10 01:14:37;;;;;;;6.33;2.57;;;;;;;11.29;100.00;94112.63;5078141;28;20203;-81
2021/08/10 01:17:08;;;;;;;5.33;2.77;;;;;;;11.17;100.00;94114.19;5078277;28;20710;-82
2021/08/10 01:19:58;;;;;;;6.60;2.63;;;;;;;11.25;100.00;94108.81;5077272;28;20248;-81
2021/08/10 01:22:29;;;;;;;3.83;2.77;;;;;;;11.24;100.00;94108.00;5076406;28;20589;-81
2021/08/10 01:25:02;;;;;;;5.77;2.30;;;;;;;11.43;100.00;94098.59;5076033;28;20203;-82
2021/08/10 01:27:53;;;;;;;4.23;2.27;;;;;;;11.59;100.00;94091.38;5076847;28;20211;-81
2021/08/10 01:30:22;;;;;;;4.87;2.10;;;;;;;11.58;100.00;94100.25;5075625;28;20198;-82
2021/08/10 01:32:52;;;;;;;11.80;2.33;;;;;;;11.60;100.00;94096.41;5076074;28;20207;-81
2021/08/10 01:35:20;;;;;;;7.17;2.47;;;;;;;11.57;100.00;94101.25;5076678;28;20725;-82
2021/08/10 01:37:51;;;;;;;10.90;2.70;;;;;;;11.54;100.00;94099.00;5076563;28;20206;-82
2021/08/10 01:40:20;;;;;;;11.07;2.53;;;;;;;11.54;100.00;94105.06;5075889;28;20203;-81
2021/08/10 01:42:48;;;;;;;3.23;2.10;;;;;;;11.56;100.00;94099.66;5074894;28;20359;-81
2021/08/10 01:45:17;;;;;;;5.00;2.53;;;;;;;11.58;100.00;94093.19;5074194;28;20442;-82
2021/08/10 01:47:47;;;;;;;6.23;2.70;;;;;;;11.55;100.00;94085.75;5075122;28;20221;-81
2021/08/10 01:50:16;;;;;;;4.20;2.40;;;;;;;11.52;100.00;94096.59;5074684;28;20724;-82
2021/08/10 01:52:47;;;;;;;8.27;2.10;;;;;;;11.40;100.00;94103.41;5075247;28;20381;-81
2021/08/10 01:55:14;;;;;;;8.67;2.83;;;;;;;11.31;100.00;94097.56;5076456;28;20676;-81
2021/08/10 01:57:43;;;;;;;10.80;2.80;;;;;;;11.19;100.00;94099.94;5075644;28;20202;-81
2021/08/10 02:00:10;;;;;;;6.33;2.50;;;;;;;11.15;100.00;94090.06;5074920;28;20198;-81
2021/08/10 02:02:36;;;;;;;9.00;2.00;;;;;;;11.19;100.00;94092.09;5074585;28;20226;-81
2021/08/10 02:05:06;;;;;;;4.77;2.50;;;;;;;11.11;100.00;94103.53;5074573;28;20198;-82
2021/08/10 02:07:35;;;;;;;7.87;2.90;;;;;;;11.18;100.00;94098.31;5074373;28;20252;-82
2021/08/10 02:10:02;;;;;;;5.13;2.40;;;;;;;11.11;100.00;94100.91;5074477;28;20565;-82
2021/08/10 02:12:28;;;;;;;4.47;2.30;;;;;;;11.02;100.00;94098.66;5074496;28;20195;-81
2021/08/10 02:14:57;;;;;;;5.43;2.50;;;;;;;10.93;100.00;94100.63;5074235;28;20226;-82
2021/08/10 02:17:24;;;;;;;6.30;2.80;;;;;;;11.02;100.00;94096.84;5074576;28;20199;-82
2021/08/10 02:19:51;;;;;;;7.25;2.92;;;;;;;11.11;100.00;94095.69;5072739;28;20937;-82
2021/08/10 02:22:18;;;;;;;6.40;2.77;;;;;;;11.09;100.00;94089.84;5074062;28;20222;-80
2021/08/10 02:24:51;;;;;;;5.37;2.43;;;;;;;11.07;100.00;94091.03;5075069;28;20238;-82
2021/08/10 02:27:23;;;;;;;8.77;2.90;;;;;;;11.14;100.00;94084.06;5074117;28;20544;-81
2021/08/10 02:29:52;;;;;;;6.45;2.60;;;;;;;11.09;100.00;94079.41;5072389;28;20440;-80
2021/08/10 02:32:23;;;;;;;6.37;2.27;;;;;;;11.11;100.00;94076.59;5073265;28;20264;-81
2021/08/10 02:34:51;;;;;;;5.43;2.60;;;;;;;11.14;100.00;94080.63;5073293;28;20704;-80
2021/08/10 02:37:18;;;;;;;6.37;2.60;;;;;;;11.13;100.00;94086.84;5073713;28;20202;-80
2021/08/10 02:39:50;;;;;;;4.90;2.53;;;;;;;11.12;100.00;94078.19;5073315;28;20210;-80
2021/08/10 02:42:20;;;;;;;3.80;2.20;;;;;;;11.08;100.00;94082.22;5073280;28;20245;-82
2021/08/10 02:44:49;;;;;;;8.87;3.17;;;;;;;10.99;100.00;94078.97;5073461;28;20269;-81
2021/08/10 02:47:19;;;;;;;5.70;2.80;;;;;;;10.95;100.00;94075.13;5073401;28;20597;-82
2021/08/10 02:49:46;;;;;;;4.93;2.97;;;;;;;10.87;100.00;94080.50;5074266;28;20205;-82
2021/08/10 02:52:12;;;;;;;5.67;2.53;;;;;;;10.89;100.00;94073.28;5073444;28;20198;-82
2021/08/10 02:54:42;;;;;;;7.13;2.50;;;;;;;10.77;100.00;94077.47;5073380;28;20198;-81
2021/08/10 02:57:15;;;;;;;13.60;2.93;;;;;;;10.86;100.00;94079.72;5073445;28;20202;-81
2021/08/10 02:59:45;;;;;;;4.13;2.70;;;;;;;10.95;100.00;94085.56;5073123;28;20186;-81
2021/08/10 03:02:15;;;;;;;7.77;2.70;;;;;;;10.94;100.00;94073.50;5073111;28;20227;-82
2021/08/10 03:04:48;;;;;;;4.97;2.57;;;;;;;10.98;100.00;94079.97;5072920;28;20199;-81
2021/08/10 03:07:18;;;;;;;11.30;2.70;;;;;;;10.92;100.00;94078.94;5073063;28;20293;-82
2021/08/10 03:09:48;;;;;;;6.97;2.57;;;;;;;10.90;100.00;94074.91;5072956;28;20205;-81
2021/08/10 03:12:20;;;;;;;6.77;2.93;;;;;;;10.89;100.00;94081.13;5073430;28;20199;-82
2021/08/10 03:14:49;;;;;;;4.43;2.70;;;;;;;10.90;100.00;94086.16;5073263;28;20198;-81
2021/08/10 03:17:17;;;;;;;3.43;2.60;;;;;;;10.86;100.00;94084.13;5073186;28;20203;-82
2021/08/10 03:19:46;;;;;;;11.60;2.83;;;;;;;10.84;100.00;94081.72;5072844;28;20661;-82
2021/08/10 03:22:15;;;;;;;6.53;2.77;;;;;;;10.92;100.00;94083.34;5072896;28;20283;-81
2021/08/10 03:24:44;;;;;;;8.23;2.73;;;;;;;10.82;100.00;94088.13;5073022;28;20215;-82
2021/08/10 03:27:11;;;;;;;9.57;2.87;;;;;;;10.93;100.00;94077.13;5073229;28;20199;-81
2021/08/10 03:29:39;;;;;;;4.63;2.77;;;;;;;11.01;100.00;94084.81;5073471;28;20285;-82
2021/08/10 03:32:09;;;;;;;7.63;3.17;;;;;;;11.01;100.00;94087.41;5073087;28;20198;-81
2021/08/10 03:34:37;;;;;;;6.83;2.53;;;;;;;11.08;100.00;94083.00;5072843;28;20205;-82
2021/08/10 03:37:04;;;;;;;6.43;2.53;;;;;;;11.04;100.00;94092.25;5072715;28;20293;-82
2021/08/10 03:39:30;;;;;;;10.70;2.70;;;;;;;11.08;100.00;94088.22;5074244;28;20194;-81
2021/08/10 03:41:58;;;;;;;5.70;2.77;;;;;;;11.02;100.00;94090.81;5076651;28;20219;-81
2021/08/10 03:44:27;;;;;;;8.63;2.97;;;;;;;11.00;100.00;94096.25;5076547;28;20227;-81
2021/08/10 03:46:58;;;;;;;5.57;2.70;;;;;;;11.06;100.00;94090.25;5076395;28;20199;-82
2021/08/10 03:49:25;;;;;;;3.83;2.40;;;;;;;11.01;100.00;94092.63;5076208;28;20199;-80
2021/08/10 03:51:52;;;;;;;7.03;2.97;;;;;;;11.20;100.00;94095.50;5076508;28;20208;-82
2021/08/10 03:54:21;;;;;;;5.00;2.60;;;;;;;11.17;100.00;94090.69;5076333;28;20198;-82
2021/08/10 03:56:50;;;;;;;6.10;3.20;;;;;;;11.17;100.00;94081.03;5076290;28;20206;-82
2021/08/10 03:59:19;;;;;;;9.33;2.83;;;;;;;11.19;100.00;94078.22;5076479;28;20199;-81
2021/08/10 04:01:47;;;;;;;6.90;2.37;;;;;;;11.21;100.00;94076.22;5075833;28;20245;-81
2021/08/10 04:04:15;;;;;;;8.43;3.17;;;;;;;11.11;100.00;94076.59;5076159;28;20203;-82
2021/08/10 04:06:42;;;;;;;3.87;2.40;;;;;;;11.02;100.00;94083.78;5076059;28;20580;-82
2021/08/10 04:09:09;;;;;;;6.27;2.73;;;;;;;10.91;100.00;94081.75;5076454;28;20205;-82
2021/08/10 04:11:38;;;;;;;4.87;2.67;;;;;;;10.91;100.00;94081.75;5076274;28;20557;-82
2021/08/10 04:14:06;;;;;;;8.07;3.10;;;;;;;11.03;100.00;94085.41;5076365;28;20194;-82
2021/08/10 04:16:45;;;;;;;5.43;2.67;;;;;;;10.93;100.00;94090.19;5076726;28;20664;-82
2021/08/10 04:19:13;;;;;;;6.20;3.30;;;;;;;10.96;100.00;94081.97;5075792;28;20206;-82
2021/08/10 04:21:42;;;;;;;5.70;2.77;;;;;;;11.03;100.00;94082.78;5075799;28;20657;-81
2021/08/10 04:24:09;;;;;;;7.47;2.97;;;;;;;11.01;100.00;94081.38;5076208;28;20673;-82
2021/08/10 04:26:36;;;;;;;7.97;2.70;;;;;;;11.07;100.00;94081.41;5075827;28;20210;-82
2021/08/10 04:29:02;;;;;;;5.83;2.93;;;;;;;10.95;100.00;94088.19;5075772;28;20227;-82
2021/08/10 04:31:30;;;;;;;6.00;2.90;;;;;;;10.99;100.00;94097.25;5076112;28;20198;-81
2021/08/10 04:33:57;;;;;;;5.70;2.93;;;;;;;11.07;100.00;94081.41;5075568;28;20300;-82
2021/08/10 04:36:23;;;;;;;4.07;2.60;;;;;;;11.26;100.00;94089.50;5075931;28;20206;-82
2021/08/10 04:38:51;;;;;;;7.43;2.73;;;;;;;11.55;100.00;94090.19;5076348;28;20198;-82
2021/08/10 04:41:18;;;;;;;5.07;2.90;;;;;;;11.85;100.00;94078.34;5075977;28;20205;-82
2021/08/10 04:43:46;;;;;;;4.90;2.73;;;;;;;12.09;100.00;94097.13;5075862;28;20232;-82
2021/08/10 04:46:13;;;;;;;5.70;2.70;;;;;;;12.16;100.00;94092.66;5075547;28;20797;-81
2021/08/10 04:48:39;;;;;;;5.43;2.77;;;;;;;12.27;100.00;94090.44;5075854;28;20206;-81
2021/08/10 04:51:06;;;;;;;3.97;2.50;;;;;;;12.33;100.00;94084.41;5075073;28;20217;-82
2021/08/10 04:53:32;;;;;;;4.47;2.10;;;;;;;12.50;100.00;94090.81;5076030;28;20676;-82
2021/08/10 04:56:00;;;;;;;3.13;1.80;;;;;;;12.72;100.00;94085.31;5075327;28;20202;-80
2021/08/10 04:58:26;;;;;;;7.70;2.03;;;;;;;12.73;100.00;94090.34;5076552;28;20195;-82
2021/08/10 05:00:53;;;;;;;5.23;2.17;;;;;;;12.95;100.00;94090.88;5077476;28;20206;-81
2021/08/10 05:03:21;;;;;;;5.50;2.20;;;;;;;13.04;100.00;94095.91;5084270;28;20238;-80
2021/08/10 05:05:48;;;;;;;6.30;2.00;;;;;;;13.02;100.00;94097.94;5082981;28;20293;-81
2021/08/10 05:08:15;;;;;;;3.50;2.27;;;;;;;13.00;100.00;94089.47;5081842;28;20194;-82
2021/08/10 05:10:43;;;;;;;4.80;2.10;;;;;;;13.11;100.00;94091.47;5083140;28;20609;-81
2021/08/10 05:13:17;;;;;;;8.50;1.98;;;;;;;13.29;100.00;94086.34;5079995;28;20199;-81
2021/08/10 05:15:43;;;;;;;3.33;1.80;;;;;;;13.31;100.00;94089.53;5080853;28;20198;-82
2021/08/10 05:18:10;;;;;;;8.40;2.50;;;;;;;13.31;100.00;94092.16;5080283;28;20199;-83
2021/08/10 05:20:37;;;;;;;3.88;2.25;;;;;;;13.47;100.00;94090.09;5081373;28;20202;-83
2021/08/10 05:23:04;;;;;;;3.83;2.10;;;;;;;13.63;100.00;94092.22;5079865;28;20234;-81
2021/08/10 05:25:30;;;;;;;4.72;1.92;;;;;;;13.72;100.00;94087.50;5078901;28;20291;-81
2021/08/10 05:27:57;;;;;;;8.52;2.13;;;;;;;13.80;100.00;94089.09;5078317;28;20209;-82
2021/08/10 05:30:26;;;;;;;6.28;2.20;;;;;;;13.97;100.00;94098.06;5076803;28;20434;-82
2021/08/10 05:32:52;;;;;;;5.70;2.35;;;;;;;14.06;100.00;94098.59;5077371;28;20214;-82
2021/08/10 05:35:19;;;;;;;6.25;1.95;;;;;;;14.22;100.00;94099.88;5077256;28;20206;-81
2021/08/10 05:37:47;;;;;;;5.00;2.05;;;;;;;14.04;100.00;94093.56;5077235;28;20225;-81
2021/08/10 05:40:14;;;;;;;4.80;1.70;;;;;;;14.01;100.00;94096.63;5076379;28;20203;-81
2021/08/10 05:42:40;;;;;;;6.22;2.13;;;;;;;14.18;100.00;94098.72;5075974;28;20233;-81
2021/08/10 05:45:08;;;;;;;5.80;1.75;;;;;;;14.25;100.00;94099.44;5076013;28;20295;-82
2021/08/10 05:47:35;;;;;;;2.80;1.73;;;;;;;14.27;100.00;94105.28;5076701;28;20194;-82
2021/08/10 05:50:02;;;;;;;3.30;1.80;;;;;;;14.33;100.00;94109.69;5076833;28;20210;-81
2021/08/10 05:52:28;;;;;;;6.07;2.10;;;;;;;14.36;100.00;94103.22;5076156;28;20201;-82
2021/08/10 05:54:56;;;;;;;3.72;1.80;;;;;;;14.54;100.00;94110.34;5076191;28;20541;-80
2021/08/10 05:57:22;;;;;;;6.07;2.05;;;;;;;14.74;100.00;94107.53;5075655;28;20207;-81
2021/08/10 05:59:50;;;;;;;3.20;1.80;;;;;;;14.83;100.00;94114.09;5075492;28;20290;-81
2021/08/10 06:02:17;;;;;;;3.88;1.65;;;;;;;14.96;100.00;94113.19;5075094;28;20731;-82
2021/08/10 06:04:44;;;;;;;3.50;1.95;;;;;;;15.05;100.00;94119.72;5074998;28;20194;-81
2021/08/10 06:07:13;;;;;;;5.65;2.03;;;;;;;15.30;100.00;94119.63;5075582;28;20289;-82
2021/08/10 06:09:42;;;;;;;5.55;2.45;;;;;;;15.85;100.00;94110.88;5074535;28;20199;-81
2021/08/10 06:12:12;;;;;;;4.90;1.73;;;;;;;16.07;100.00;94118.25;5075796;28;20289;-81
2021/08/10 06:14:38;;;;;;;5.97;2.05;;;;;;;16.43;100.00;94125.16;5074836;28;20434;-81
2021/08/10 06:17:07;;;;;;;4.05;1.98;;;;;;;16.68;100.00;94124.16;5075536;28;20194;-82
2021/08/10 06:19:34;;;;;;;4.68;1.52;;;;;;;16.75;100.00;94118.78;5075808;28;20645;-82
2021/08/10 06:22:02;;;;;;;4.60;1.65;;;;;;;16.95;100.00;94124.53;5075812;28;20221;-81
2021/08/10 06:24:30;;;;;;;4.93;1.83;;;;;;;16.90;100.00;94134.94;5074726;28;20230;-82
2021/08/10 06:26:57;;;;;;;3.58;1.83;;;;;;;16.46;100.00;94134.47;5074958;28;20320;-82
2021/08/10 06:29:23;;;;;;;5.68;2.05;;;;;;;16.45;100.00;94140.75;5074568;28;20626;-82
2021/08/10 06:31:50;;;;;;;6.43;2.00;;;;;;;16.53;100.00;94148.34;5075275;28;20198;-82
2021/08/10 06:34:19;;;;;;;3.38;1.70;;;;;;;16.79;100.00;94143.66;5074591;28;20222;-83
2021/08/10 06:36:45;;;;;;;4.25;1.88;;;;;;;16.57;100.00;94138.97;5074882;28;20199;-83
2021/08/10 06:39:13;;;;;;;4.65;1.70;;;;;;;16.53;100.00;94147.53;5075487;28;20210;-82
2021/08/10 06:41:40;;;;;;;5.78;1.60;;;;;;;16.70;100.00;94142.38;5074938;28;20305;-81
2021/08/10 06:44:06;;;;;;;2.85;1.67;;;;;;;16.78;100.00;94142.03;5075192;28;20245;-81
2021/08/10 06:46:33;;;;;;;4.85;1.98;;;;;;;17.10;100.00;94147.81;5074432;28;20282;-82
2021/08/10 06:48:59;;;;;;;3.33;1.67;;;;;;;17.55;100.00;94144.50;5075249;28;20562;-82
2021/08/10 06:51:26;;;;;;;3.47;1.67;;;;;;;17.31;100.00;94151.66;5076832;28;20203;-82
2021/08/10 06:53:52;;;;;;;3.45;2.05;;;;;;;17.50;100.00;94151.50;5076332;28;20676;-82
2021/08/10 06:56:23;;;;;;;4.93;2.13;;;;;;;17.73;100.00;94145.34;5076377;28;20205;-82
2021/08/10 06:58:49;;;;;;;4.43;2.00;;;;;;;17.70;100.00;94146.63;5075841;28;20199;-83
2021/08/10 07:01:16;;;;;;;2.95;1.65;;;;;;;18.03;99.92;94139.81;5075911;28;20206;-82
2021/08/10 07:03:42;;;;;;;4.60;1.75;;;;;;;18.22;98.54;94132.50;5083035;28;20767;-84
2021/08/10 07:06:10;;;;;;;4.50;1.67;;;;;;;18.47;94.43;94129.47;5089957;28;20198;-83
2021/08/10 07:08:36;;;;;;;5.93;1.92;;;;;;;18.36;91.13;94127.69;5087325;28;20209;-81
2021/08/10 07:11:06;;;;;;;7.75;1.98;;;;;;;18.49;84.35;94135.31;5081768;28;20202;-82
2021/08/10 07:13:34;;;;;;;4.13;1.90;;;;;;;18.02;84.21;94132.97;5081205;28;20230;-81
2021/08/10 07:16:00;;;;;;;5.28;1.70;;;;;;;17.93;94.29;94129.09;5078826;28;20202;-82
2021/08/10 07:18:27;;;;;;;3.55;1.30;;;;;;;18.03;92.86;94126.63;5080063;28;20195;-82
2021/08/10 07:20:53;;;;;;;4.25;1.70;;;;;;;18.10;89.13;94129.09;5081768;28;20214;-82
2021/08/10 07:23:20;;;;;;;4.45;1.70;;;;;;;18.23;87.71;94125.38;5081519;28;20222;-83
2021/08/10 07:25:46;;;;;;;3.65;1.67;;;;;;;18.25;88.65;94128.56;5081819;28;20210;-83
2021/08/10 07:28:13;;;;;;;4.93;1.67;;;;;;;18.27;89.93;94123.88;5080373;28;20210;-82
2021/08/10 07:30:41;;;;;;;4.70;1.75;;;;;;;18.42;86.06;94121.47;5080996;28;20286;-81
2021/08/10 07:33:07;;;;;;;3.00;1.70;;;;;;;18.45;91.85;94126.28;5082455;28;20199;-81
2021/08/10 07:35:34;;;;;;;2.60;1.80;;;;;;;18.55;85.29;94119.53;5080162;28;20206;-82
2021/08/10 07:38:00;;;;;;;5.15;1.92;;;;;;;18.68;88.68;94125.31;5079888;28;20199;-82
2021/08/10 07:40:27;;;;;;;3.83;1.67;;;;;;;18.75;89.45;94124.31;5079842;28;20221;-82
2021/08/10 07:42:53;;;;;;;4.00;1.77;;;;;;;18.80;90.15;94114.63;5078919;28;20229;-82
2021/08/10 07:45:20;;;;;;;3.88;1.52;;;;;;;18.86;87.78;94113.66;5077367;28;20234;-83
2021/08/10 07:47:48;;;;;;;4.03;1.67;;;;;;;18.98;86.96;94112.75;5077458;28;20661;-82
2021/08/10 07:50:19;;;;;;;2.92;1.30;;;;;;;18.99;89.62;94117.03;5078451;28;20199;-82
2021/08/10 07:52:48;;;;;;;3.45;1.65;;;;;;;18.92;88.56;94119.84;5077626;28;20230;-81
2021/08/10 07:55:15;;;;;;;2.78;1.77;;;;;;;19.04;87.38;94115.22;5078214;28;20296;-81
2021/08/10 07:57:42;;;;;;;6.40;1.65;;;;;;;19.13;88.49;94109.50;5077320;28;20249;-82
2021/08/10 08:00:12;;;;;;;4.05;1.50;;;;;;;19.55;81.57;94117.72;5078322;28;20237;-83
2021/08/10 08:02:39;;;;;;;3.33;1.60;;;;;;;19.79;79.16;94122.78;5079160;28;20214;-82
2021/08/10 08:05:08;;;;;;;5.53;1.92;;;;;;;19.70;76.63;94117.09;5077782;28;20210;-82
2021/08/10 08:07:34;;;;;;;5.53;1.85;;;;;;;19.65;76.54;94121.50;5078069;28;20210;-82
2021/08/10 08:10:01;;;;;;;3.65;1.88;;;;;;;19.92;82.29;94109.13;5078474;28;20205;-83
2021/08/10 08:12:27;;;;;;;3.10;1.80;;;;;;;20.01;76.24;94114.75;5078215;28;20201;-83
2021/08/10 08:14:54;;;;;;;2.88;1.40;;;;;;;20.12;75.43;94105.06;5078897;28;20248;-83
2021/08/10 08:17:20;;;;;;;2.60;1.48;;;;;;;20.21;82.74;94106.19;5077822;28;20289;-82
2021/08/10 08:19:47;;;;;;;2.47;1.50;;;;;;;20.36;79.93;94110.03;5077648;28;20198;-83
2021/08/10 08:22:15;;;;;;;3.63;1.38;;;;;;;20.49;75.17;94105.09;5077171;28;20198;-82
2021/08/10 08:24:41;;;;;;;3.58;1.52;;;;;;;20.50;73.30;94112.00;5076941;28;20697;-81
2021/08/10 08:27:08;;;;;;;7.45;2.00;;;;;;;20.70;81.73;94110.59;5075692;28;20221;-82
2021/08/10 08:29:34;;;;;;;3.42;1.40;;;;;;;20.94;81.10;94107.56;5076459;28;20430;-81
2021/08/10 08:32:01;;;;;;;4.18;1.50;;;;;;;21.03;73.63;94112.13;5076536;28;20673;-82
2021/08/10 08:34:27;;;;;;;4.93;1.80;;;;;;;21.06;78.29;94108.94;5076050;28;20195;-82
2021/08/10 08:36:54;;;;;;;5.93;1.67;;;;;;;20.87;78.73;94099.81;5075416;28;20202;-81
2021/08/10 08:39:21;;;;;;;2.35;1.30;;;;;;;20.88;70.89;94102.22;5074334;28;20191;-82
2021/08/10 08:41:49;;;;;;;2.22;1.67;;;;;;;20.77;76.52;94099.75;5075548;28;20203;-82
2021/08/10 08:44:16;;;;;;;2.55;1.52;;;;;;;20.90;71.82;94101.97;5076570;28;20238;-81
2021/08/10 08:46:44;;;;;;;2.85;1.45;;;;;;;20.97;73.67;94099.09;5076425;28;20213;-82
2021/08/10 08:49:14;;;;;;;4.28;1.38;;;;;;;20.85;73.98;94096.59;5077805;28;20206;-82
2021/08/10 08:51:43;;;;;;;3.10;1.40;;;;;;;20.88;79.28;94096.91;5078920;28;20202;-82
2021/08/10 08:54:10;;;;;;;4.10;1.75;;;;;;;20.83;83.81;94094.22;5077980;28;20206;-82
2021/08/10 08:56:38;;;;;;;4.72;1.40;;;;;;;21.00;73.32;94104.66;5077781;28;20222;-82
2021/08/10 08:59:04;;;;;;;2.78;1.52;;;;;;;21.43;77.24;94102.75;5077997;28;20210;-82
2021/08/10 09:01:31;;;;;;;3.00;1.50;;;;;;;21.75;71.50;94095.69;5077998;28;20205;-82
2021/08/10 09:03:58;;;;;;;8.05;1.88;;;;;;;21.80;67.75;94099.16;5077339;28;20226;-81
2021/08/10 09:06:24;;;;;;;5.55;1.90;;;;;;;21.81;78.76;94095.44;5077137;28;20222;-83
2021/08/10 09:08:53;;;;;;;3.67;1.70;;;;;;;21.62;79.88;94094.34;5077024;28;20201;-83
2021/08/10 09:11:23;;;;;;;3.60;1.80;;;;;;;21.81;74.64;94095.44;5079897;28;20255;-83
2021/08/10 09:13:58;;;;;;;5.22;1.60;;;;;;;22.26;77.31;94087.00;5084659;28;20294;-83
2021/08/10 09:16:24;;;;;;;6.43;1.60;;;;;;;22.42;77.89;94087.84;5084229;28;20198;-83
2021/08/10 09:18:51;;;;;;;3.53;1.40;;;;;;;22.38;75.33;94090.19;5084153;28;20199;-83
2021/08/10 09:21:21;;;;;;;4.90;3.53;;;;;;;22.60;68.73;94091.78;5085802;28;20203;-82
2021/08/10 09:23:49;;;;;;;3.13;1.40;;;;;;;22.77;68.92;94079.00;5080748;28;20222;-83
2021/08/10 09:26:18;;;;;;;19.73;6.53;;;;;;;22.85;68.23;94089.09;5079968;28;20201;-84
2021/08/10 09:28:48;;;;;;;3.25;1.73;;;;;;;22.89;66.27;94086.69;5079518;28;20290;-84
2021/08/10 09:31:34;;;;;;;3.40;1.48;;;;;;;22.95;69.96;94082.97;5080386;28;20554;-83
2021/08/10 09:34:03;;;;;;;7.30;1.80;;;;;;;22.67;65.51;94087.00;5065295;28;20199;-82
2021/08/10 09:36:30;;;;;;;3.47;1.83;;;;;;;22.58;65.83;94083.28;5073907;28;20260;-81
2021/08/10 09:38:57;;;;;;;3.78;1.60;;;;;;;22.71;68.07;94082.72;5074390;28;20198;-81
2021/08/10 09:41:24;;;;;;;2.97;1.55;;;;;;;22.68;65.19;94083.25;5074574;28;20667;-81
2021/08/10 09:44:06;;;;;;;4.35;1.67;;;;;;;23.04;67.63;94077.88;5074007;28;20273;-82
2021/08/10 09:46:35;;;;;;;3.05;1.50;;;;;;;22.63;67.46;94078.75;5074737;28;20210;-82
2021/08/10 09:49:02;;;;;;;3.25;1.60;;;;;;;23.07;65.13;94074.69;5074746;28;20217;-82
2021/08/10 09:51:31;;;;;;;2.35;1.40;;;;;;;23.33;64.56;94078.09;5074261;28;20244;-81
2021/08/10 09:53:59;;;;;;;5.07;1.60;;;;;;;22.77;62.33;94086.19;5073964;28;20203;-81
2021/08/10 09:56:38;;;;;;;3.22;1.63;;;;;;;22.87;60.75;94080.84;5074075;28;20205;-80
2021/08/10 09:59:05;;;;;;;3.30;1.80;;;;;;;23.17;62.45;94085.31;5074191;28;20207;-82
2021/08/10 10:01:36;;;;;;;4.55;1.65;;;;;;;23.47;66.22;94078.28;5074332;28;20221;-81
2021/08/10 10:04:25;;;;;;;3.70;1.80;;;;;;;23.55;62.38;94082.22;5073750;28;20222;-82
2021/08/10 10:06:53;;;;;;;4.05;1.50;;;;;;;23.52;60.47;94080.13;5074348;28;20229;-82
2021/08/10 10:09:20;;;;;;;4.20;1.95;;;;;;;23.43;62.95;94083.38;5073825;28;20212;-81
2021/08/10 10:11:48;;;;;;;4.10;1.80;;;;;;;23.68;60.84;94078.19;5073944;28;20209;-81
2021/08/10 10:14:15;;;;;;;8.43;1.80;;;;;;;23.54;65.98;94078.78;5073885;28;20203;-82
2021/08/10 10:16:46;;;;;;;7.07;1.88;;;;;;;23.89;63.84;94079.69;5073625;28;20199;-81
2021/08/10 10:19:14;;;;;;;2.30;1.55;;;;;;;24.48;61.63;94069.09;5073462;28;20199;-81
2021/08/10 10:21:43;;;;;;;4.00;1.95;;;;;;;24.56;63.25;94076.53;5074276;28;20205;-80
2021/08/10 10:24:11;;;;;;;6.55;1.52;;;;;;;24.53;65.58;94066.41;5073125;28;20700;-81
2021/08/10 10:26:40;;;;;;;2.25;1.33;;;;;;;24.73;64.02;94060.91;5073454;28;20657;-81
2021/08/10 10:29:07;;;;;;;2.50;1.60;;;;;;;24.27;59.97;94068.50;5072667;28;20681;-81
2021/08/10 10:31:33;;;;;;;3.55;1.85;;;;;;;24.30;63.51;94068.72;5072033;28;20206;-81
2021/08/10 10:34:02;;;;;;;4.35;1.67;;;;;;;23.70;63.86;94060.03;5071667;28;20653;-81
2021/08/10 10:36:29;;;;;;;4.88;1.80;;;;;;;23.73;62.75;94068.28;5072956;28;20211;-81
2021/08/10 10:38:58;;;;;;;3.28;1.48;;;;;;;23.75;63.93;94066.16;5073082;28;20199;-81
2021/08/10 10:41:30;;;;;;;4.95;1.67;;;;;;;23.95;63.92;94059.13;5073024;28;20347;-81
2021/08/10 10:43:56;;;;;;;5.10;1.90;;;;;;;24.14;61.49;94053.91;5072664;28;20234;-82
2021/08/10 10:46:25;;;;;;;5.20;2.00;;;;;;;24.14;61.49;94053.91;5071905;28;20199;-81
2021/08/10 10:48:52;;;;;;;2.70;1.73;;;;;;;24.47;63.34;94054.97;5072432;28;20209;-81
2021/08/10 10:51:25;;;;;;;4.10;1.77;;;;;;;24.53;61.00;94059.19;5072732;28;20649;-81
2021/08/10 10:53:52;;;;;;;5.03;1.90;;;;;;;23.77;61.10;94048.00;5072981;28;20217;-81
2021/08/10 10:56:32;;;;;;;3.13;1.75;;;;;;;23.64;62.56;94049.38;5073124;28;20226;-82
2021/08/10 10:59:28;;;;;;;3.53;1.70;;;;;;;23.76;64.43;94054.38;5072979;28;20653;-81
2021/08/10 11:02:15;;;;;;;2.58;1.70;;;;;;;23.75;62.74;94046.69;5073061;28;20244;-81
2021/08/10 11:05:17;;;;;;;3.47;1.98;;;;;;;23.69;61.96;94053.13;5072810;28;20234;-81
2021/08/10 11:07:47;;;;;;;5.47;1.75;;;;;;;23.88;64.16;94048.78;5072830;28;20681;-81
2021/08/10 11:10:45;;;;;;;4.85;1.92;;;;;;;24.12;63.22;94040.84;5072799;28;20209;-81
2021/08/10 11:13:35;;;;;;;4.03;1.80;;;;;;;24.29;66.01;94045.78;5072667;28;20234;-82
2021/08/10 11:16:02;;;;;;;5.15;1.65;;;;;;;24.55;60.65;94046.38;5073064;28;20260;-81
2021/08/10 11:18:29;;;;;;;3.88;1.92;;;;;;;24.56;62.00;94034.66;5072812;28;20203;-81
2021/08/10 11:21:21;;;;;;;5.55;1.80;;;;;;;24.70;67.67;94031.31;5073176;28;20209;-80
2021/08/10 11:23:49;;;;;;;4.15;1.88;;;;;;;25.49;62.00;94050.44;5072619;28;20293;-81
2021/08/10 11:26:40;;;;;;;3.95;1.58;;;;;;;25.80;62.97;94042.03;5072512;28;20195;-80
2021/08/10 11:29:08;;;;;;;8.63;2.33;;;;;;;26.44;58.53;94046.97;5072778;28;20206;-81
2021/08/10 11:31:38;;;;;;;4.97;1.67;;;;;;;26.20;54.38;94034.50;5072386;28;20679;-80
2021/08/10 11:34:25;;;;;;;3.80;1.42;;;;;;;26.20;58.36;94037.19;5072332;28;20203;-81
2021/08/10 11:37:17;;;;;;;4.75;1.98;;;;;;;26.50;57.11;94024.38;5072429;28;20665;-81